sensor_id;sensor_type;location;lat;lon;timestamp;P1;durP1;ratioP1;P2;durP2;ratioP2
18290;SDS011;9271;48.590;8.866;2022-12-07T00:01:06;6.90;;;6.20;;
18290;SDS011;9271;48.590;8.866;2022-12-07T00:03:33;6.30;;;5.70;;
18290;SDS011;9271;48.590;8.866;2022-12-07T00:06:01;6.70;;;6.00;;
18290;SDS011;9271;48.590;8.866;2022-12-07T00:08:29;5.87;;;5.27;;
18290;SDS011;9271;48.590;8.866;2022-12-07T00:11:00;6.13;;;5.20;;
18290;SDS011;9271;48.590;8.866;2022-12-07T00:13:28;5.70;;;5.20;;
18290;SDS011;9271;48.590;8.866;2022-12-07T00:15:54;5.30;;;4.80;;
18290;SDS011;9271;48.590;8.866;2022-12-07T00:18:22;5.50;;;5.00;;
18290;SDS011;9271;48.590;8.866;2022-12-07T00:20:49;5.43;;;4.93;;
18290;SDS011;9271;48.590;8.866;2022-12-07T00:23:16;5.30;;;4.80;;
18290;SDS011;9271;48.590;8.866;2022-12-07T00:25:42;5.73;;;5.23;;
18290;SDS011;9271;48.590;8.866;2022-12-07T00:28:09;5.87;;;5.10;;
18290;SDS011;9271;48.590;8.866;2022-12-07T00:30:36;5.40;;;4.80;;
18290;SDS011;9271;48.590;8.866;2022-12-07T00:33:02;5.23;;;4.77;;
18290;SDS011;9271;48.590;8.866;2022-12-07T00:35:30;4.87;;;4.37;;
18290;SDS011;9271;48.590;8.866;2022-12-07T00:37:57;5.10;;;4.60;;
18290;SDS011;9271;48.590;8.866;2022-12-07T00:40:24;4.90;;;4.40;;
18290;SDS011;9271;48.590;8.866;2022-12-07T00:42:50;4.50;;;4.07;;
18290;SDS011;9271;48.590;8.866;2022-12-07T00:45:17;4.77;;;4.37;;
18290;SDS011;9271;48.590;8.866;2022-12-07T00:47:44;4.47;;;4.07;;
18290;SDS011;9271;48.590;8.866;2022-12-07T00:50:11;4.70;;;4.30;;
18290;SDS011;9271;48.590;8.866;2022-12-07T00:52:39;4.63;;;4.23;;
18290;SDS011;9271;48.590;8.866;2022-12-07T00:55:06;4.70;;;4.20;;
18290;SDS011;9271;48.590;8.866;2022-12-07T00:57:33;4.33;;;3.93;;
18290;SDS011;9271;48.590;8.866;2022-12-07T00:59:59;4.87;;;4.33;;
18290;SDS011;9271;48.590;8.866;2022-12-07T01:02:26;4.53;;;4.13;;
18290;SDS011;9271;48.590;8.866;2022-12-07T01:04:53;4.93;;;4.43;;
18290;SDS011;9271;48.590;8.866;2022-12-07T01:07:20;4.30;;;3.90;;
18290;SDS011;9271;48.590;8.866;2022-12-07T01:09:48;4.80;;;4.40;;
18290;SDS011;9271;48.590;8.866;2022-12-07T01:12:14;5.63;;;4.63;;
18290;SDS011;9271;48.590;8.866;2022-12-07T01:14:41;4.90;;;4.50;;
18290;SDS011;9271;48.590;8.866;2022-12-07T01:17:08;5.23;;;4.73;;
18290;SDS011;9271;48.590;8.866;2022-12-07T01:19:34;6.10;;;4.70;;
18290;SDS011;9271;48.590;8.866;2022-12-07T01:22:02;5.00;;;4.60;;
18290;SDS011;9271;48.590;8.866;2022-12-07T01:24:28;5.40;;;4.90;;
18290;SDS011;9271;48.590;8.866;2022-12-07T01:26:56;5.70;;;5.10;;
18290;SDS011;9271;48.590;8.866;2022-12-07T01:29:23;5.23;;;4.73;;
18290;SDS011;9271;48.590;8.866;2022-12-07T01:31:50;4.90;;;4.33;;
18290;SDS011;9271;48.590;8.866;2022-12-07T01:34:16;6.27;;;5.50;;
18290;SDS011;9271;48.590;8.866;2022-12-07T01:36:43;5.67;;;5.17;;
18290;SDS011;9271;48.590;8.866;2022-12-07T01:39:10;6.87;;;5.37;;
18290;SDS011;9271;48.590;8.866;2022-12-07T01:41:37;5.50;;;4.90;;
18290;SDS011;9271;48.590;8.866;2022-12-07T01:44:14;5.53;;;5.03;;
18290;SDS011;9271;48.590;8.866;2022-12-07T01:46:46;5.87;;;5.30;;
18290;SDS011;9271;48.590;8.866;2022-12-07T01:49:16;5.50;;;5.00;;
18290;SDS011;9271;48.590;8.866;2022-12-07T01:51:47;5.00;;;4.50;;
18290;SDS011;9271;48.590;8.866;2022-12-07T01:54:17;5.90;;;5.03;;
18290;SDS011;9271;48.590;8.866;2022-12-07T01:56:47;5.40;;;4.90;;
18290;SDS011;9271;48.590;8.866;2022-12-07T01:59:19;5.53;;;5.03;;
18290;SDS011;9271;48.590;8.866;2022-12-07T02:01:49;5.23;;;4.70;;
18290;SDS011;9271;48.590;8.866;2022-12-07T02:04:16;5.53;;;5.03;;
18290;SDS011;9271;48.590;8.866;2022-12-07T02:06:43;5.93;;;5.33;;
18290;SDS011;9271;48.590;8.866;2022-12-07T02:09:11;5.70;;;5.10;;
18290;SDS011;9271;48.590;8.866;2022-12-07T02:11:38;4.47;;;4.07;;
18290;SDS011;9271;48.590;8.866;2022-12-07T02:14:05;5.07;;;4.67;;
18290;SDS011;9271;48.590;8.866;2022-12-07T02:16:34;5.17;;;4.77;;
18290;SDS011;9271;48.590;8.866;2022-12-07T02:19:26;5.03;;;4.40;;
18290;SDS011;9271;48.590;8.866;2022-12-07T02:22:18;5.20;;;4.80;;
18290;SDS011;9271;48.590;8.866;2022-12-07T02:25:02;5.20;;;4.70;;
18290;SDS011;9271;48.590;8.866;2022-12-07T02:27:39;6.07;;;5.47;;
18290;SDS011;9271;48.590;8.866;2022-12-07T02:30:13;6.03;;;5.43;;
18290;SDS011;9271;48.590;8.866;2022-12-07T02:32:47;6.47;;;5.87;;
18290;SDS011;9271;48.590;8.866;2022-12-07T02:35:22;6.37;;;5.20;;
18290;SDS011;9271;48.590;8.866;2022-12-07T02:37:57;6.07;;;5.47;;
18290;SDS011;9271;48.590;8.866;2022-12-07T02:40:29;5.10;;;4.67;;
18290;SDS011;9271;48.590;8.866;2022-12-07T02:43:01;5.37;;;4.87;;
18290;SDS011;9271;48.590;8.866;2022-12-07T02:45:34;4.87;;;4.37;;
18290;SDS011;9271;48.590;8.866;2022-12-07T02:48:03;5.23;;;4.77;;
18290;SDS011;9271;48.590;8.866;2022-12-07T02:50:31;5.03;;;4.63;;
18290;SDS011;9271;48.590;8.866;2022-12-07T02:52:58;5.50;;;5.00;;
18290;SDS011;9271;48.590;8.866;2022-12-07T02:55:26;5.37;;;4.87;;
18290;SDS011;9271;48.590;8.866;2022-12-07T02:58:03;5.10;;;4.60;;
18290;SDS011;9271;48.590;8.866;2022-12-07T03:00:40;5.20;;;4.70;;
18290;SDS011;9271;48.590;8.866;2022-12-07T03:03:17;5.47;;;4.97;;
18290;SDS011;9271;48.590;8.866;2022-12-07T03:08:39;6.43;;;5.83;;
18290;SDS011;9271;48.590;8.866;2022-12-07T03:11:12;6.37;;;5.77;;
18290;SDS011;9271;48.590;8.866;2022-12-07T03:13:44;7.13;;;6.43;;
18290;SDS011;9271;48.590;8.866;2022-12-07T03:16:16;6.93;;;5.50;;
18290;SDS011;9271;48.590;8.866;2022-12-07T03:18:48;6.40;;;5.80;;
18290;SDS011;9271;48.590;8.866;2022-12-07T03:21:17;7.50;;;6.40;;
18290;SDS011;9271;48.590;8.866;2022-12-07T03:23:48;7.87;;;6.60;;
18290;SDS011;9271;48.590;8.866;2022-12-07T03:26:18;7.67;;;6.87;;
18290;SDS011;9271;48.590;8.866;2022-12-07T03:28:49;7.10;;;6.40;;
18290;SDS011;9271;48.590;8.866;2022-12-07T03:31:21;7.07;;;6.10;;
18290;SDS011;9271;48.590;8.866;2022-12-07T03:33:52;7.30;;;6.50;;
18290;SDS011;9271;48.590;8.866;2022-12-07T03:36:29;8.00;;;7.20;;
18290;SDS011;9271;48.590;8.866;2022-12-07T03:39:02;7.90;;;6.93;;
18290;SDS011;9271;48.590;8.866;2022-12-07T03:41:37;9.00;;;6.93;;
18290;SDS011;9271;48.590;8.866;2022-12-07T03:44:04;8.57;;;7.03;;
18290;SDS011;9271;48.590;8.866;2022-12-07T03:46:36;7.73;;;6.80;;
18290;SDS011;9271;48.590;8.866;2022-12-07T03:49:11;7.63;;;6.93;;
18290;SDS011;9271;48.590;8.866;2022-12-07T03:51:45;7.63;;;6.77;;
18290;SDS011;9271;48.590;8.866;2022-12-07T03:54:18;9.23;;;7.30;;
18290;SDS011;9271;48.590;8.866;2022-12-07T03:56:49;12.63;;;7.83;;
18290;SDS011;9271;48.590;8.866;2022-12-07T03:59:18;9.20;;;7.57;;
18290;SDS011;9271;48.590;8.866;2022-12-07T04:01:51;8.67;;;7.30;;
18290;SDS011;9271;48.590;8.866;2022-12-07T04:04:18;10.97;;;7.60;;
18290;SDS011;9271;48.590;8.866;2022-12-07T04:06:45;8.10;;;7.20;;
18290;SDS011;9271;48.590;8.866;2022-12-07T04:09:12;9.77;;;7.30;;
18290;SDS011;9271;48.590;8.866;2022-12-07T04:11:39;8.43;;;7.23;;
18290;SDS011;9271;48.590;8.866;2022-12-07T04:14:06;8.70;;;7.60;;
18290;SDS011;9271;48.590;8.866;2022-12-07T04:16:46;9.17;;;7.77;;
18290;SDS011;9271;48.590;8.866;2022-12-07T04:19:16;8.87;;;7.53;;
18290;SDS011;9271;48.590;8.866;2022-12-07T04:21:43;8.70;;;7.37;;
18290;SDS011;9271;48.590;8.866;2022-12-07T04:24:11;9.47;;;7.27;;
18290;SDS011;9271;48.590;8.866;2022-12-07T04:26:38;7.90;;;7.10;;
18290;SDS011;9271;48.590;8.866;2022-12-07T04:29:05;9.77;;;7.20;;
18290;SDS011;9271;48.590;8.866;2022-12-07T04:31:32;7.70;;;6.90;;
18290;SDS011;9271;48.590;8.866;2022-12-07T04:34:02;7.23;;;6.27;;
18290;SDS011;9271;48.590;8.866;2022-12-07T04:36:30;7.33;;;6.63;;
18290;SDS011;9271;48.590;8.866;2022-12-07T04:38:57;7.80;;;6.53;;
18290;SDS011;9271;48.590;8.866;2022-12-07T04:41:24;8.30;;;7.40;;
18290;SDS011;9271;48.590;8.866;2022-12-07T04:43:53;8.33;;;7.03;;
18290;SDS011;9271;48.590;8.866;2022-12-07T04:46:21;7.60;;;6.83;;
18290;SDS011;9271;48.590;8.866;2022-12-07T04:48:48;7.70;;;6.90;;
18290;SDS011;9271;48.590;8.866;2022-12-07T04:51:18;8.00;;;7.03;;
18290;SDS011;9271;48.590;8.866;2022-12-07T04:53:48;7.70;;;6.87;;
18290;SDS011;9271;48.590;8.866;2022-12-07T04:56:15;7.83;;;6.97;;
18290;SDS011;9271;48.590;8.866;2022-12-07T04:58:43;7.77;;;6.97;;
18290;SDS011;9271;48.590;8.866;2022-12-07T05:01:10;7.97;;;6.93;;
18290;SDS011;9271;48.590;8.866;2022-12-07T05:03:37;7.40;;;6.70;;
18290;SDS011;9271;48.590;8.866;2022-12-07T05:06:05;9.50;;;7.13;;
18290;SDS011;9271;48.590;8.866;2022-12-07T05:08:33;8.47;;;7.03;;
18290;SDS011;9271;48.590;8.866;2022-12-07T05:11:01;8.07;;;7.23;;
18290;SDS011;9271;48.590;8.866;2022-12-07T05:13:28;11.87;;;7.47;;
18290;SDS011;9271;48.590;8.866;2022-12-07T05:15:55;12.53;;;7.70;;
18290;SDS011;9271;48.590;8.866;2022-12-07T05:18:22;10.60;;;7.77;;
18290;SDS011;9271;48.590;8.866;2022-12-07T05:20:49;13.20;;;8.00;;
18290;SDS011;9271;48.590;8.866;2022-12-07T05:23:16;12.63;;;8.20;;
18290;SDS011;9271;48.590;8.866;2022-12-07T05:25:45;10.90;;;8.40;;
18290;SDS011;9271;48.590;8.866;2022-12-07T05:28:12;11.63;;;8.63;;
18290;SDS011;9271;48.590;8.866;2022-12-07T05:30:39;12.20;;;8.70;;
18290;SDS011;9271;48.590;8.866;2022-12-07T05:33:06;11.77;;;9.13;;
18290;SDS011;9271;48.590;8.866;2022-12-07T05:35:33;12.07;;;9.40;;
18290;SDS011;9271;48.590;8.866;2022-12-07T05:38:00;11.23;;;9.30;;
18290;SDS011;9271;48.590;8.866;2022-12-07T05:40:26;16.33;;;11.17;;
18290;SDS011;9271;48.590;8.866;2022-12-07T05:42:54;14.70;;;9.87;;
18290;SDS011;9271;48.590;8.866;2022-12-07T05:45:21;14.83;;;10.00;;
18290;SDS011;9271;48.590;8.866;2022-12-07T05:47:48;14.10;;;9.63;;
18290;SDS011;9271;48.590;8.866;2022-12-07T05:50:14;14.60;;;9.40;;
18290;SDS011;9271;48.590;8.866;2022-12-07T05:52:41;15.17;;;9.47;;
18290;SDS011;9271;48.590;8.866;2022-12-07T05:55:08;16.40;;;10.50;;
18290;SDS011;9271;48.590;8.866;2022-12-07T05:57:35;18.07;;;11.27;;
18290;SDS011;9271;48.590;8.866;2022-12-07T06:00:04;15.27;;;10.97;;
18290;SDS011;9271;48.590;8.866;2022-12-07T06:02:30;15.37;;;10.50;;
18290;SDS011;9271;48.590;8.866;2022-12-07T06:04:57;16.20;;;10.70;;
18290;SDS011;9271;48.590;8.866;2022-12-07T06:07:24;14.40;;;10.00;;
18290;SDS011;9271;48.590;8.866;2022-12-07T06:09:50;15.67;;;10.83;;
18290;SDS011;9271;48.590;8.866;2022-12-07T06:12:17;16.90;;;12.10;;
18290;SDS011;9271;48.590;8.866;2022-12-07T06:15:06;20.37;;;12.33;;
18290;SDS011;9271;48.590;8.866;2022-12-07T06:17:33;14.27;;;10.90;;
18290;SDS011;9271;48.590;8.866;2022-12-07T06:19:59;15.87;;;11.00;;
18290;SDS011;9271;48.590;8.866;2022-12-07T06:22:26;14.37;;;10.70;;
18290;SDS011;9271;48.590;8.866;2022-12-07T06:24:53;13.97;;;10.10;;
18290;SDS011;9271;48.590;8.866;2022-12-07T06:27:20;14.50;;;10.13;;
18290;SDS011;9271;48.590;8.866;2022-12-07T06:29:46;14.77;;;10.70;;
18290;SDS011;9271;48.590;8.866;2022-12-07T06:32:14;14.73;;;9.97;;
18290;SDS011;9271;48.590;8.866;2022-12-07T06:34:41;14.57;;;9.83;;
18290;SDS011;9271;48.590;8.866;2022-12-07T06:37:08;16.80;;;10.00;;
18290;SDS011;9271;48.590;8.866;2022-12-07T06:39:35;14.67;;;10.03;;
18290;SDS011;9271;48.590;8.866;2022-12-07T06:42:01;15.23;;;9.80;;
18290;SDS011;9271;48.590;8.866;2022-12-07T06:44:28;15.37;;;10.60;;
18290;SDS011;9271;48.590;8.866;2022-12-07T06:46:55;14.67;;;10.23;;
18290;SDS011;9271;48.590;8.866;2022-12-07T06:49:23;15.63;;;10.03;;
18290;SDS011;9271;48.590;8.866;2022-12-07T06:51:50;14.40;;;10.30;;
18290;SDS011;9271;48.590;8.866;2022-12-07T06:54:17;12.80;;;9.90;;
18290;SDS011;9271;48.590;8.866;2022-12-07T06:56:44;15.00;;;10.50;;
18290;SDS011;9271;48.590;8.866;2022-12-07T06:59:10;14.33;;;10.33;;
18290;SDS011;9271;48.590;8.866;2022-12-07T07:01:37;14.23;;;10.00;;
18290;SDS011;9271;48.590;8.866;2022-12-07T07:04:04;14.87;;;10.90;;
18290;SDS011;9271;48.590;8.866;2022-12-07T07:06:32;14.43;;;10.37;;
18290;SDS011;9271;48.590;8.866;2022-12-07T07:08:59;13.10;;;9.70;;
18290;SDS011;9271;48.590;8.866;2022-12-07T07:11:26;14.27;;;10.53;;
18290;SDS011;9271;48.590;8.866;2022-12-07T07:13:52;14.47;;;10.83;;
18290;SDS011;9271;48.590;8.866;2022-12-07T07:16:22;13.37;;;9.40;;
18290;SDS011;9271;48.590;8.866;2022-12-07T07:18:48;15.07;;;9.97;;
18290;SDS011;9271;48.590;8.866;2022-12-07T07:21:15;16.67;;;10.10;;
18290;SDS011;9271;48.590;8.866;2022-12-07T07:23:43;15.13;;;10.20;;
18290;SDS011;9271;48.590;8.866;2022-12-07T07:26:10;14.17;;;9.97;;
18290;SDS011;9271;48.590;8.866;2022-12-07T07:28:37;14.20;;;10.03;;
18290;SDS011;9271;48.590;8.866;2022-12-07T07:31:04;15.57;;;10.37;;
18290;SDS011;9271;48.590;8.866;2022-12-07T07:33:31;13.50;;;9.43;;
18290;SDS011;9271;48.590;8.866;2022-12-07T07:35:57;13.50;;;9.57;;
18290;SDS011;9271;48.590;8.866;2022-12-07T07:38:24;14.80;;;8.87;;
18290;SDS011;9271;48.590;8.866;2022-12-07T07:40:52;14.53;;;9.40;;
18290;SDS011;9271;48.590;8.866;2022-12-07T07:43:19;12.67;;;8.83;;
18290;SDS011;9271;48.590;8.866;2022-12-07T07:45:45;12.70;;;9.00;;
18290;SDS011;9271;48.590;8.866;2022-12-07T07:48:12;14.70;;;8.87;;
18290;SDS011;9271;48.590;8.866;2022-12-07T07:50:39;13.40;;;8.67;;
18290;SDS011;9271;48.590;8.866;2022-12-07T07:53:06;10.30;;;8.53;;
18290;SDS011;9271;48.590;8.866;2022-12-07T07:55:33;12.13;;;8.73;;
18290;SDS011;9271;48.590;8.866;2022-12-07T07:58:01;10.00;;;8.30;;
18290;SDS011;9271;48.590;8.866;2022-12-07T08:00:28;10.53;;;8.93;;
18290;SDS011;9271;48.590;8.866;2022-12-07T08:02:54;12.00;;;9.30;;
18290;SDS011;9271;48.590;8.866;2022-12-07T08:05:21;12.20;;;10.67;;
18290;SDS011;9271;48.590;8.866;2022-12-07T08:07:48;14.80;;;10.90;;
18290;SDS011;9271;48.590;8.866;2022-12-07T08:10:15;12.63;;;9.30;;
18290;SDS011;9271;48.590;8.866;2022-12-07T08:12:42;10.00;;;8.93;;
18290;SDS011;9271;48.590;8.866;2022-12-07T08:15:28;10.10;;;8.53;;
18290;SDS011;9271;48.590;8.866;2022-12-07T08:17:56;12.63;;;9.40;;
18290;SDS011;9271;48.590;8.866;2022-12-07T08:20:23;10.77;;;8.90;;
18290;SDS011;9271;48.590;8.866;2022-12-07T08:22:49;11.50;;;9.20;;
18290;SDS011;9271;48.590;8.866;2022-12-07T08:25:16;12.63;;;8.53;;
18290;SDS011;9271;48.590;8.866;2022-12-07T08:27:43;10.90;;;8.97;;
18290;SDS011;9271;48.590;8.866;2022-12-07T08:30:10;15.13;;;10.33;;
18290;SDS011;9271;48.590;8.866;2022-12-07T08:32:39;10.57;;;7.70;;
18290;SDS011;9271;48.590;8.866;2022-12-07T08:35:06;8.50;;;7.07;;
18290;SDS011;9271;48.590;8.866;2022-12-07T08:37:33;7.50;;;6.20;;
18290;SDS011;9271;48.590;8.866;2022-12-07T08:40:00;7.87;;;5.70;;
18290;SDS011;9271;48.590;8.866;2022-12-07T08:42:26;6.13;;;5.50;;
18290;SDS011;9271;48.590;8.866;2022-12-07T08:44:55;6.13;;;5.43;;
18290;SDS011;9271;48.590;8.866;2022-12-07T08:47:22;7.20;;;4.90;;
18290;SDS011;9271;48.590;8.866;2022-12-07T08:49:51;7.40;;;4.73;;
18290;SDS011;9271;48.590;8.866;2022-12-07T08:52:19;5.30;;;4.33;;
18290;SDS011;9271;48.590;8.866;2022-12-07T08:54:46;7.87;;;4.50;;
18290;SDS011;9271;48.590;8.866;2022-12-07T08:57:13;6.00;;;4.07;;
18290;SDS011;9271;48.590;8.866;2022-12-07T08:59:40;4.97;;;4.20;;
18290;SDS011;9271;48.590;8.866;2022-12-07T09:02:07;5.17;;;4.50;;
18290;SDS011;9271;48.590;8.866;2022-12-07T09:04:34;4.93;;;4.43;;
18290;SDS011;9271;48.590;8.866;2022-12-07T09:07:02;6.87;;;4.57;;
18290;SDS011;9271;48.590;8.866;2022-12-07T09:09:29;4.63;;;4.13;;
18290;SDS011;9271;48.590;8.866;2022-12-07T09:11:55;5.17;;;4.67;;
18290;SDS011;9271;48.590;8.866;2022-12-07T09:14:22;5.27;;;4.77;;
18290;SDS011;9271;48.590;8.866;2022-12-07T09:16:49;8.80;;;5.00;;
18290;SDS011;9271;48.590;8.866;2022-12-07T09:19:16;7.57;;;4.60;;
18290;SDS011;9271;48.590;8.866;2022-12-07T09:21:43;5.67;;;4.60;;
18290;SDS011;9271;48.590;8.866;2022-12-07T09:24:12;4.90;;;4.40;;
18290;SDS011;9271;48.590;8.866;2022-12-07T09:26:39;4.70;;;4.30;;
18290;SDS011;9271;48.590;8.866;2022-12-07T09:29:06;5.67;;;4.17;;
18290;SDS011;9271;48.590;8.866;2022-12-07T09:31:32;5.10;;;4.60;;
18290;SDS011;9271;48.590;8.866;2022-12-07T09:34:02;5.00;;;4.50;;
18290;SDS011;9271;48.590;8.866;2022-12-07T09:36:30;4.10;;;3.80;;
18290;SDS011;9271;48.590;8.866;2022-12-07T09:38:57;4.60;;;3.70;;
18290;SDS011;9271;48.590;8.866;2022-12-07T09:41:25;4.40;;;4.00;;
18290;SDS011;9271;48.590;8.866;2022-12-07T09:43:57;4.40;;;4.00;;
18290;SDS011;9271;48.590;8.866;2022-12-07T09:46:30;4.03;;;3.60;;
18290;SDS011;9271;48.590;8.866;2022-12-07T09:49:02;3.93;;;3.63;;
18290;SDS011;9271;48.590;8.866;2022-12-07T09:51:29;4.13;;;3.83;;
18290;SDS011;9271;48.590;8.866;2022-12-07T09:53:56;4.00;;;3.60;;
18290;SDS011;9271;48.590;8.866;2022-12-07T09:56:28;4.70;;;4.30;;
18290;SDS011;9271;48.590;8.866;2022-12-07T09:58:58;4.60;;;4.20;;
18290;SDS011;9271;48.590;8.866;2022-12-07T10:01:27;4.53;;;4.13;;
18290;SDS011;9271;48.590;8.866;2022-12-07T10:03:59;4.53;;;4.10;;
18290;SDS011;9271;48.590;8.866;2022-12-07T10:06:32;4.97;;;4.57;;
18290;SDS011;9271;48.590;8.866;2022-12-07T10:08:59;4.70;;;4.30;;
18290;SDS011;9271;48.590;8.866;2022-12-07T10:11:28;4.80;;;4.27;;
18290;SDS011;9271;48.590;8.866;2022-12-07T10:13:55;4.80;;;4.23;;
18290;SDS011;9271;48.590;8.866;2022-12-07T10:16:39;5.23;;;4.30;;
18290;SDS011;9271;48.590;8.866;2022-12-07T10:19:20;6.57;;;4.63;;
18290;SDS011;9271;48.590;8.866;2022-12-07T10:22:00;4.87;;;4.37;;
18290;SDS011;9271;48.590;8.866;2022-12-07T10:24:35;5.07;;;4.27;;
18290;SDS011;9271;48.590;8.866;2022-12-07T10:27:09;5.53;;;3.97;;
18290;SDS011;9271;48.590;8.866;2022-12-07T10:29:47;4.67;;;4.27;;
18290;SDS011;9271;48.590;8.866;2022-12-07T10:32:27;5.13;;;4.63;;
18290;SDS011;9271;48.590;8.866;2022-12-07T10:35:15;6.20;;;4.50;;
18290;SDS011;9271;48.590;8.866;2022-12-07T10:37:46;5.00;;;4.60;;
18290;SDS011;9271;48.590;8.866;2022-12-07T10:40:23;4.93;;;4.43;;
18290;SDS011;9271;48.590;8.866;2022-12-07T10:43:01;4.60;;;4.20;;
18290;SDS011;9271;48.590;8.866;2022-12-07T10:45:29;5.53;;;4.60;;
18290;SDS011;9271;48.590;8.866;2022-12-07T10:47:58;5.20;;;4.53;;
18290;SDS011;9271;48.590;8.866;2022-12-07T10:50:29;5.10;;;4.50;;
18290;SDS011;9271;48.590;8.866;2022-12-07T10:53:18;4.77;;;4.37;;
18290;SDS011;9271;48.590;8.866;2022-12-07T10:56:09;5.13;;;4.37;;
18290;SDS011;9271;48.590;8.866;2022-12-07T10:58:56;4.63;;;4.00;;
18290;SDS011;9271;48.590;8.866;2022-12-07T11:01:38;4.70;;;4.30;;
18290;SDS011;9271;48.590;8.866;2022-12-07T11:04:18;5.17;;;4.63;;
18290;SDS011;9271;48.590;8.866;2022-12-07T11:06:57;4.43;;;4.03;;
18290;SDS011;9271;48.590;8.866;2022-12-07T11:09:38;4.60;;;4.20;;
18290;SDS011;9271;48.590;8.866;2022-12-07T11:12:26;5.20;;;4.13;;
18290;SDS011;9271;48.590;8.866;2022-12-07T11:15:08;4.30;;;3.90;;
18290;SDS011;9271;48.590;8.866;2022-12-07T11:17:42;4.80;;;4.40;;
18290;SDS011;9271;48.590;8.866;2022-12-07T11:20:23;4.57;;;4.17;;
18290;SDS011;9271;48.590;8.866;2022-12-07T11:23:02;4.97;;;4.57;;
18290;SDS011;9271;48.590;8.866;2022-12-07T11:25:38;4.47;;;4.07;;
18290;SDS011;9271;48.590;8.866;2022-12-07T11:28:17;5.93;;;4.00;;
18290;SDS011;9271;48.590;8.866;2022-12-07T11:30:54;4.60;;;4.17;;
18290;SDS011;9271;48.590;8.866;2022-12-07T11:33:29;4.70;;;4.30;;
18290;SDS011;9271;48.590;8.866;2022-12-07T11:36:06;6.00;;;4.30;;
18290;SDS011;9271;48.590;8.866;2022-12-07T11:38:49;5.80;;;4.20;;
18290;SDS011;9271;48.590;8.866;2022-12-07T11:41:20;5.40;;;4.30;;
18290;SDS011;9271;48.590;8.866;2022-12-07T11:43:51;5.10;;;4.40;;
18290;SDS011;9271;48.590;8.866;2022-12-07T11:46:24;4.50;;;4.10;;
18290;SDS011;9271;48.590;8.866;2022-12-07T11:48:55;4.83;;;4.30;;
18290;SDS011;9271;48.590;8.866;2022-12-07T11:51:28;4.20;;;3.83;;
18290;SDS011;9271;48.590;8.866;2022-12-07T11:53:59;4.40;;;4.00;;
18290;SDS011;9271;48.590;8.866;2022-12-07T11:56:29;4.80;;;4.40;;
18290;SDS011;9271;48.590;8.866;2022-12-07T11:59:02;7.23;;;4.60;;
18290;SDS011;9271;48.590;8.866;2022-12-07T12:01:39;4.57;;;4.17;;
18290;SDS011;9271;48.590;8.866;2022-12-07T12:04:17;4.67;;;4.20;;
18290;SDS011;9271;48.590;8.866;2022-12-07T12:06:53;7.60;;;4.93;;
18290;SDS011;9271;48.590;8.866;2022-12-07T12:09:21;5.27;;;4.77;;
18290;SDS011;9271;48.590;8.866;2022-12-07T12:12:00;4.73;;;4.33;;
18290;SDS011;9271;48.590;8.866;2022-12-07T12:14:46;4.73;;;4.33;;
18290;SDS011;9271;48.590;8.866;2022-12-07T12:17:34;4.90;;;4.40;;
18290;SDS011;9271;48.590;8.866;2022-12-07T12:20:15;5.03;;;4.57;;
18290;SDS011;9271;48.590;8.866;2022-12-07T12:22:48;4.87;;;4.47;;
18290;SDS011;9271;48.590;8.866;2022-12-07T12:25:20;5.13;;;4.57;;
18290;SDS011;9271;48.590;8.866;2022-12-07T12:27:49;4.77;;;4.27;;
18290;SDS011;9271;48.590;8.866;2022-12-07T12:30:30;4.90;;;4.20;;
18290;SDS011;9271;48.590;8.866;2022-12-07T12:33:05;7.60;;;4.13;;
18290;SDS011;9271;48.590;8.866;2022-12-07T12:35:39;6.03;;;4.33;;
18290;SDS011;9271;48.590;8.866;2022-12-07T12:40:59;5.47;;;4.97;;
18290;SDS011;9271;48.590;8.866;2022-12-07T12:43:40;5.43;;;4.50;;
18290;SDS011;9271;48.590;8.866;2022-12-07T12:55:15;4.40;;;4.00;;
18290;SDS011;9271;48.590;8.866;2022-12-07T12:57:45;4.27;;;3.70;;
18290;SDS011;9271;48.590;8.866;2022-12-07T13:00:17;3.60;;;3.30;;
18290;SDS011;9271;48.590;8.866;2022-12-07T13:02:47;2.80;;;2.60;;
18290;SDS011;9271;48.590;8.866;2022-12-07T13:05:18;2.50;;;2.30;;
18290;SDS011;9271;48.590;8.866;2022-12-07T13:07:57;4.90;;;2.20;;
18290;SDS011;9271;48.590;8.866;2022-12-07T13:10:33;2.47;;;2.17;;
18290;SDS011;9271;48.590;8.866;2022-12-07T13:22:27;1.80;;;1.70;;
18290;SDS011;9271;48.590;8.866;2022-12-07T13:25:05;1.70;;;1.60;;
18290;SDS011;9271;48.590;8.866;2022-12-07T13:27:35;1.40;;;1.30;;
18290;SDS011;9271;48.590;8.866;2022-12-07T13:30:09;1.30;;;1.30;;
18290;SDS011;9271;48.590;8.866;2022-12-07T13:32:40;4.80;;;1.70;;
18290;SDS011;9271;48.590;8.866;2022-12-07T13:37:58;4.30;;;1.97;;
18290;SDS011;9271;48.590;8.866;2022-12-07T13:40:27;1.90;;;1.80;;
18290;SDS011;9271;48.590;8.866;2022-12-07T13:42:57;1.80;;;1.70;;
18290;SDS011;9271;48.590;8.866;2022-12-07T13:45:25;2.10;;;1.90;;
18290;SDS011;9271;48.590;8.866;2022-12-07T13:48:14;2.37;;;2.13;;
18290;SDS011;9271;48.590;8.866;2022-12-07T13:50:51;1.77;;;1.67;;
18290;SDS011;9271;48.590;8.866;2022-12-07T13:53:21;4.37;;;1.80;;
18290;SDS011;9271;48.590;8.866;2022-12-07T13:55:48;3.13;;;2.60;;
18290;SDS011;9271;48.590;8.866;2022-12-07T13:58:15;2.20;;;2.00;;
18290;SDS011;9271;48.590;8.866;2022-12-07T14:00:42;2.73;;;2.53;;
18290;SDS011;9271;48.590;8.866;2022-12-07T14:03:26;2.67;;;2.40;;
18290;SDS011;9271;48.590;8.866;2022-12-07T14:06:13;3.23;;;2.90;;
18290;SDS011;9271;48.590;8.866;2022-12-07T14:08:48;3.50;;;3.00;;
18290;SDS011;9271;48.590;8.866;2022-12-07T14:11:16;3.73;;;3.37;;
18290;SDS011;9271;48.590;8.866;2022-12-07T14:13:47;3.17;;;2.77;;
18290;SDS011;9271;48.590;8.866;2022-12-07T14:16:22;2.40;;;2.30;;
18290;SDS011;9271;48.590;8.866;2022-12-07T14:18:53;2.90;;;2.60;;
18290;SDS011;9271;48.590;8.866;2022-12-07T14:21:21;2.30;;;2.13;;
18290;SDS011;9271;48.590;8.866;2022-12-07T14:24:07;2.47;;;2.27;;
18290;SDS011;9271;48.590;8.866;2022-12-07T14:26:37;2.60;;;2.40;;
18290;SDS011;9271;48.590;8.866;2022-12-07T14:32:18;3.43;;;2.37;;
18290;SDS011;9271;48.590;8.866;2022-12-07T14:37:36;2.40;;;2.20;;
18290;SDS011;9271;48.590;8.866;2022-12-07T14:40:06;2.80;;;2.60;;
18290;SDS011;9271;48.590;8.866;2022-12-07T14:42:38;2.13;;;2.03;;
18290;SDS011;9271;48.590;8.866;2022-12-07T14:45:11;4.73;;;2.70;;
18290;SDS011;9271;48.590;8.866;2022-12-07T14:47:40;2.37;;;2.00;;
18290;SDS011;9271;48.590;8.866;2022-12-07T14:50:07;2.13;;;2.03;;
18290;SDS011;9271;48.590;8.866;2022-12-07T14:52:37;3.73;;;2.60;;
18290;SDS011;9271;48.590;8.866;2022-12-07T14:55:11;3.10;;;2.20;;
18290;SDS011;9271;48.590;8.866;2022-12-07T14:57:40;4.60;;;2.47;;
18290;SDS011;9271;48.590;8.866;2022-12-07T15:00:08;2.23;;;2.13;;
18290;SDS011;9271;48.590;8.866;2022-12-07T15:02:39;3.00;;;2.37;;
18290;SDS011;9271;48.590;8.866;2022-12-07T15:05:06;4.17;;;2.80;;
18290;SDS011;9271;48.590;8.866;2022-12-07T15:07:33;3.03;;;2.70;;
18290;SDS011;9271;48.590;8.866;2022-12-07T15:09:59;2.87;;;2.30;;
18290;SDS011;9271;48.590;8.866;2022-12-07T15:12:27;2.83;;;2.40;;
18290;SDS011;9271;48.590;8.866;2022-12-07T15:14:54;3.43;;;3.13;;
18290;SDS011;9271;48.590;8.866;2022-12-07T15:17:21;5.50;;;3.67;;
18290;SDS011;9271;48.590;8.866;2022-12-07T15:19:47;5.13;;;4.20;;
18290;SDS011;9271;48.590;8.866;2022-12-07T15:22:14;3.57;;;3.10;;
18290;SDS011;9271;48.590;8.866;2022-12-07T15:24:41;3.70;;;3.40;;
18290;SDS011;9271;48.590;8.866;2022-12-07T15:27:08;4.73;;;3.40;;
18290;SDS011;9271;48.590;8.866;2022-12-07T15:29:36;4.60;;;3.00;;
18290;SDS011;9271;48.590;8.866;2022-12-07T15:32:02;2.97;;;2.60;;
18290;SDS011;9271;48.590;8.866;2022-12-07T15:34:29;3.50;;;3.10;;
18290;SDS011;9271;48.590;8.866;2022-12-07T15:36:56;4.80;;;3.27;;
18290;SDS011;9271;48.590;8.866;2022-12-07T15:39:23;3.40;;;3.10;;
18290;SDS011;9271;48.590;8.866;2022-12-07T15:41:50;3.30;;;2.70;;
18290;SDS011;9271;48.590;8.866;2022-12-07T15:44:16;2.77;;;2.57;;
18290;SDS011;9271;48.590;8.866;2022-12-07T15:47:03;3.00;;;2.53;;
18290;SDS011;9271;48.590;8.866;2022-12-07T15:49:30;3.00;;;2.67;;